Time;durP1;ratioP1;P1;durP2;ratioP2;P2;SDS_P1;SDS_P2;PMS_P1;PMS_P2;Temp;Humidity;BMP_temperature;BMP_pressure;BME280_temperature;BME280_humidity;BME280_pressure;Samples;Min_cycle;Max_cycle;Signal;HPM_P1;HPM_P2
2021/10/25 00:00:11;;;;;;;7.77;5.60;;;17.00;49.80;;;;;;5046327;28;20446;-86
2021/10/25 00:02:41;;;;;;;6.60;4.67;;;16.90;49.80;;;;;;5046471;28;20423;-84
2021/10/25 00:05:12;;;;;;;5.50;4.90;;;17.00;49.90;;;;;;5047781;28;20447;-84
2021/10/25 00:07:40;;;;;;;6.83;4.90;;;17.00;49.80;;;;;;5034110;28;20446;-84
2021/10/25 00:10:09;;;;;;;8.30;5.03;;;17.00;49.90;;;;;;5028347;28;20431;-84
2021/10/25 00:12:40;;;;;;;7.50;5.07;;;17.00;49.90;;;;;;5028199;28;20550;-84
2021/10/25 00:15:09;;;;;;;5.87;4.60;;;17.00;49.90;;;;;;5029841;28;20431;-83
2021/10/25 00:17:37;;;;;;;5.20;4.70;;;16.90;49.80;;;;;;5032209;28;20517;-84
2021/10/25 00:20:11;;;;;;;6.50;4.80;;;16.90;49.80;;;;;;5031953;28;20447;-84
2021/10/25 00:22:40;;;;;;;6.43;4.70;;;16.90;49.80;;;;;;5032309;28;20516;-85
2021/10/25 00:25:08;;;;;;;6.13;5.17;;;16.90;49.80;;;;;;5032020;28;20439;-85
2021/10/25 00:27:36;;;;;;;5.37;4.40;;;16.90;49.80;;;;;;5032102;28;20446;-85
2021/10/25 00:30:05;;;;;;;6.47;5.00;;;16.90;49.80;;;;;;5031849;28;20505;-84
2021/10/25 00:32:34;;;;;;;5.00;4.10;;;16.90;49.80;;;;;;5031313;28;20526;-84
2021/10/25 00:35:02;;;;;;;8.07;5.30;;;16.90;49.90;;;;;;5031895;28;20523;-84
2021/10/25 00:37:31;;;;;;;6.97;4.47;;;16.90;49.80;;;;;;5032188;28;20431;-84
2021/10/25 00:39:59;;;;;;;6.80;4.77;;;16.90;49.90;;;;;;5031922;28;20451;-84
2021/10/25 00:42:27;;;;;;;12.67;5.27;;;16.90;49.90;;;;;;5032183;28;20447;-84
2021/10/25 00:44:56;;;;;;;6.77;4.63;;;16.90;49.80;;;;;;5031872;28;20509;-84
2021/10/25 00:47:24;;;;;;;5.63;4.80;;;16.90;49.90;;;;;;5032249;28;20494;-84
2021/10/25 00:49:54;;;;;;;6.37;4.60;;;16.90;49.90;;;;;;5032047;28;20447;-85
2021/10/25 00:52:25;;;;;;;6.67;4.50;;;16.90;49.80;;;;;;5031519;28;20527;-84
2021/10/25 00:54:55;;;;;;;6.33;4.77;;;16.90;49.90;;;;;;5031467;28;20469;-85
2021/10/25 00:57:23;;;;;;;7.40;4.83;;;16.90;50.10;;;;;;5031718;28;20448;-85
2021/10/25 00:59:51;;;;;;;7.93;4.77;;;16.90;50.00;;;;;;5031703;28;20470;-85
2021/10/25 01:02:19;;;;;;;6.87;4.33;;;16.90;50.00;;;;;;5030377;28;20452;-85
2021/10/25 01:04:48;;;;;;;6.20;4.50;;;16.90;50.00;;;;;;5028739;28;20452;-85
2021/10/25 01:07:16;;;;;;;6.33;5.00;;;16.90;50.00;;;;;;5028292;28;20447;-84
2021/10/25 01:09:44;;;;;;;5.43;4.37;;;16.90;50.00;;;;;;5030036;28;20447;-84
2021/10/25 01:12:14;;;;;;;4.57;4.13;;;16.80;49.90;;;;;;5028989;28;20443;-84
2021/10/25 01:14:42;;;;;;;5.33;4.30;;;16.80;50.00;;;;;;5031214;28;20509;-84
2021/10/25 01:17:10;;;;;;;7.07;4.60;;;16.80;50.10;;;;;;5028321;28;20482;-84
2021/10/25 01:19:38;;;;;;;4.97;4.20;;;16.80;50.10;;;;;;5028222;28;20458;-84
2021/10/25 01:22:08;;;;;;;6.40;4.50;;;16.80;50.20;;;;;;5027778;28;20459;-84
2021/10/25 01:24:37;;;;;;;5.83;4.57;;;16.80;50.20;;;;;;5027857;28;20477;-84
2021/10/25 01:27:05;;;;;;;5.80;4.40;;;16.80;50.20;;;;;;5029070;28;20458;-84
2021/10/25 01:29:33;;;;;;;5.20;4.13;;;16.80;50.20;;;;;;5028962;28;20444;-85
2021/10/25 01:32:02;;;;;;;6.03;4.40;;;16.80;50.20;;;;;;5028687;28;20456;-84
2021/10/25 01:34:31;;;;;;;4.80;4.30;;;16.80;50.20;;;;;;5025319;28;20471;-84
2021/10/25 01:37:00;;;;;;;7.60;4.30;;;16.80;50.20;;;;;;5026200;28;20479;-84
2021/10/25 01:39:30;;;;;;;6.00;4.30;;;16.80;50.10;;;;;;5041830;28;20542;-84
2021/10/25 01:41:58;;;;;;;4.77;4.13;;;16.80;50.20;;;;;;5043423;28;20454;-85
2021/10/25 01:44:27;;;;;;;8.03;4.73;;;16.80;50.30;;;;;;5040709;28;20446;-85
2021/10/25 01:46:55;;;;;;;4.73;3.73;;;16.80;50.20;;;;;;5037583;28;20435;-85
2021/10/25 01:49:23;;;;;;;6.37;4.10;;;16.80;50.20;;;;;;5040109;28;20435;-85
2021/10/25 01:51:52;;;;;;;5.77;4.40;;;16.80;50.20;;;;;;5037180;28;20438;-84
2021/10/25 01:54:21;;;;;;;5.20;4.23;;;16.70;50.20;;;;;;5036111;28;20475;-84
2021/10/25 01:56:51;;;;;;;4.40;4.00;;;16.80;50.40;;;;;;5031028;28;20455;-85
2021/10/25 01:59:19;;;;;;;4.00;3.60;;;16.70;50.20;;;;;;5034028;28;20457;-85
2021/10/25 02:01:47;;;;;;;4.63;4.20;;;16.70;50.30;;;;;;5046337;28;20454;-85
2021/10/25 02:04:15;;;;;;;5.20;4.70;;;16.70;50.30;;;;;;5048917;28;20442;-85
2021/10/25 02:06:44;;;;;;;6.17;4.40;;;16.70;50.40;;;;;;5039733;28;20471;-85
2021/10/25 02:09:12;;;;;;;5.07;4.37;;;16.70;50.30;;;;;;5030082;28;20455;-85
2021/10/25 02:11:40;;;;;;;5.23;4.00;;;16.70;50.20;;;;;;5029651;28;20443;-85
2021/10/25 02:14:10;;;;;;;5.07;4.50;;;16.70;50.30;;;;;;5029797;28;20526;-85
2021/10/25 02:20:26;;;;;;;5.80;4.43;;;16.70;50.20;;;;;;5030922;28;20422;-85
2021/10/25 02:22:54;;;;;;;9.23;3.97;;;16.60;50.30;;;;;;5027517;28;20470;-85
2021/10/25 02:25:23;;;;;;;4.70;4.30;;;16.60;50.40;;;;;;5027551;28;20470;-85
2021/10/25 02:27:51;;;;;;;4.80;4.27;;;16.60;50.40;;;;;;5027369;28;20427;-85
2021/10/25 02:30:21;;;;;;;4.30;3.90;;;16.60;50.30;;;;;;5029383;28;20428;-86
2021/10/25 02:32:50;;;;;;;6.80;4.20;;;16.60;50.30;;;;;;5030208;28;20427;-85
2021/10/25 02:35:18;;;;;;;4.40;3.90;;;16.60;50.30;;;;;;5030008;28;20482;-85
2021/10/25 02:37:46;;;;;;;6.00;4.77;;;16.60;50.40;;;;;;5029799;28;20475;-85
2021/10/25 02:40:15;;;;;;;4.97;4.00;;;16.60;50.50;;;;;;5029844;28;20479;-85
2021/10/25 02:42:43;;;;;;;5.17;4.30;;;16.60;50.40;;;;;;5029856;28;20451;-84
2021/10/25 02:45:11;;;;;;;4.47;3.97;;;16.60;50.20;;;;;;5029216;28;20559;-85
2021/10/25 02:47:42;;;;;;;4.53;4.13;;;16.60;50.20;;;;;;5028822;28;20459;-85
2021/10/25 02:50:10;;;;;;;5.77;4.03;;;16.60;50.40;;;;;;5029207;28;20512;-85
2021/10/25 02:52:38;;;;;;;4.67;4.27;;;16.60;50.20;;;;;;5028602;28;20455;-85
2021/10/25 02:55:07;;;;;;;4.77;4.13;;;16.60;50.30;;;;;;5028363;28;20534;-85
2021/10/25 02:57:35;;;;;;;4.80;3.97;;;16.60;50.30;;;;;;5028186;28;20509;-86
2021/10/25 03:00:04;;;;;;;4.17;3.87;;;16.60;50.40;;;;;;5027451;28;20526;-86
2021/10/25 03:02:33;;;;;;;5.87;4.13;;;16.50;50.10;;;;;;5026447;28;20443;-86
2021/10/25 03:05:04;;;;;;;4.40;4.00;;;16.60;50.30;;;;;;5026680;28;20444;-85
2021/10/25 03:07:32;;;;;;;4.40;4.00;;;16.50;50.20;;;;;;5026485;28;20421;-85
2021/10/25 03:10:00;;;;;;;7.10;3.83;;;16.50;50.30;;;;;;5027244;28;20444;-85
2021/10/25 03:12:28;;;;;;;4.83;4.17;;;16.50;50.30;;;;;;5027777;28;20479;-85
2021/10/25 03:14:56;;;;;;;4.13;3.83;;;16.50;50.30;;;;;;5028345;28;20471;-85
2021/10/25 03:17:26;;;;;;;6.30;4.30;;;16.50;50.30;;;;;;5027980;28;20551;-84
2021/10/25 03:19:55;;;;;;;4.80;4.40;;;16.50;50.30;;;;;;5027414;28;20412;-85
2021/10/25 03:22:25;;;;;;;5.30;4.20;;;16.50;50.40;;;;;;5022144;28;20467;-85
2021/10/25 03:24:53;;;;;;;6.07;4.57;;;16.60;50.50;;;;;;5028405;28;20447;-85
2021/10/25 03:27:21;;;;;;;4.60;3.83;;;16.50;50.20;;;;;;5028976;28;20471;-84
2021/10/25 03:29:49;;;;;;;5.63;4.07;;;16.50;50.30;;;;;;5029192;28;20477;-84
2021/10/25 03:32:17;;;;;;;4.97;4.47;;;16.50;50.30;;;;;;5028967;28;20533;-84
2021/10/25 03:34:46;;;;;;;4.57;3.67;;;16.50;50.40;;;;;;5028911;28;20463;-84
2021/10/25 03:37:14;;;;;;;4.87;4.40;;;16.50;50.40;;;;;;5028908;28;20447;-85
2021/10/25 03:39:46;;;;;;;5.80;4.57;;;16.50;50.30;;;;;;5028934;28;20443;-85
2021/10/25 03:42:21;;;;;;;4.47;4.07;;;16.50;50.40;;;;;;5028324;28;20458;-85
2021/10/25 03:44:57;;;;;;;3.83;3.53;;;16.40;50.40;;;;;;5028520;28;20474;-85
2021/10/25 03:47:28;;;;;;;7.27;4.33;;;16.50;50.60;;;;;;5028874;28;20430;-85
2021/10/25 03:50:05;;;;;;;5.20;4.70;;;16.50;50.40;;;;;;5029389;28;20443;-84
2021/10/25 03:52:37;;;;;;;5.13;4.13;;;16.50;50.40;;;;;;5032075;28;20512;-85
2021/10/25 03:55:11;;;;;;;5.03;4.00;;;16.50;50.50;;;;;;5032143;28;20545;-85
2021/10/25 03:58:03;;;;;;;5.20;4.50;;;16.40;50.40;;;;;;5032553;28;20490;-85
2021/10/25 04:28:09;;;;;;;6.37;3.70;;;16.30;50.60;;;;;;5042705;28;20449;-84
2021/10/25 04:30:38;;;;;;;5.13;4.30;;;16.30;50.50;;;;;;5051868;28;20636;-84
2021/10/25 04:33:08;;;;;;;4.67;4.20;;;16.30;50.40;;;;;;5051901;28;20456;-84
2021/10/25 04:35:37;;;;;;;4.13;3.73;;;16.30;50.50;;;;;;5051411;28;20573;-85
2021/10/25 04:38:05;;;;;;;4.43;4.07;;;16.30;50.40;;;;;;5039170;28;20474;-84
2021/10/25 04:40:34;;;;;;;4.53;4.13;;;16.30;50.40;;;;;;5028990;28;20439;-84
2021/10/25 04:43:02;;;;;;;5.43;4.27;;;16.30;50.40;;;;;;5029179;28;20505;-84
2021/10/25 04:45:31;;;;;;;5.90;3.93;;;16.30;50.40;;;;;;5029286;28;20439;-84
2021/10/25 04:47:59;;;;;;;4.00;3.60;;;16.30;50.50;;;;;;5029467;28;20531;-84
2021/10/25 04:50:27;;;;;;;4.20;3.80;;;16.30;50.40;;;;;;5029062;28;20431;-85
2021/10/25 04:52:56;;;;;;;4.50;4.10;;;16.30;50.40;;;;;;5029133;28;20454;-85
2021/10/25 04:55:24;;;;;;;5.30;4.00;;;16.30;50.40;;;;;;5031916;28;20536;-85
2021/10/25 04:57:52;;;;;;;6.20;4.33;;;16.30;50.50;;;;;;5031777;28;20487;-85
2021/10/25 05:00:20;;;;;;;6.13;3.87;;;16.30;50.50;;;;;;5031443;28;20451;-85
2021/10/25 05:02:50;;;;;;;5.43;4.10;;;16.30;50.40;;;;;;5029199;28;20452;-85
2021/10/25 05:05:18;;;;;;;4.90;4.17;;;16.30;50.40;;;;;;5029293;28;20525;-85
2021/10/25 05:07:46;;;;;;;5.90;4.23;;;16.30;50.60;;;;;;5030859;28;20529;-84
2021/10/25 05:10:14;;;;;;;4.70;3.80;;;16.30;50.50;;;;;;5030529;28;20509;-85
2021/10/25 05:12:42;;;;;;;4.40;4.00;;;16.30;50.40;;;;;;5031315;28;20451;-85
2021/10/25 05:15:10;;;;;;;6.40;4.00;;;16.30;50.40;;;;;;5030913;28;20463;-85
2021/10/25 05:17:38;;;;;;;4.30;4.00;;;16.30;50.50;;;;;;5031225;28;20489;-87
2021/10/25 05:20:09;;;;;;;5.20;4.17;;;16.30;50.60;;;;;;5031037;28;20451;-87
2021/10/25 05:22:37;;;;;;;3.90;3.60;;;16.20;50.60;;;;;;5030848;28;20450;-87
2021/10/25 05:25:08;;;;;;;4.30;3.80;;;16.20;50.60;;;;;;5031246;28;20424;-86
2021/10/25 05:27:36;;;;;;;4.43;4.03;;;16.30;50.50;;;;;;5031317;28;20474;-86
2021/10/25 05:30:05;;;;;;;3.90;3.60;;;16.30;50.70;;;;;;5030500;28;20497;-87
2021/10/25 05:32:33;;;;;;;5.90;4.10;;;16.30;50.80;;;;;;5030787;28;20439;-87
2021/10/25 05:35:01;;;;;;;5.17;3.83;;;16.20;50.70;;;;;;5030664;28;20532;-86
2021/10/25 05:37:30;;;;;;;4.00;3.60;;;16.30;50.70;;;;;;5030689;28;20436;-86
2021/10/25 05:39:58;;;;;;;5.27;3.80;;;16.30;50.80;;;;;;5031003;28;20591;-86
2021/10/25 05:42:26;;;;;;;4.10;3.70;;;16.30;50.90;;;;;;5031033;28;20483;-86
2021/10/25 05:44:54;;;;;;;3.77;3.47;;;16.30;50.80;;;;;;5031047;28;20486;-86
2021/10/25 05:47:23;;;;;;;5.83;3.80;;;16.20;50.70;;;;;;5030735;28;20448;-86
2021/10/25 05:49:51;;;;;;;4.43;4.03;;;16.30;50.90;;;;;;5030444;28;20427;-86
2021/10/25 05:52:19;;;;;;;4.50;3.70;;;16.30;50.80;;;;;;5030418;28;20447;-86
2021/10/25 05:54:49;;;;;;;4.10;3.70;;;16.30;50.70;;;;;;5028603;28;20431;-86
2021/10/25 05:57:17;;;;;;;3.90;3.50;;;16.30;50.70;;;;;;5028126;28;20482;-86
2021/10/25 05:59:47;;;;;;;4.43;4.10;;;16.20;50.70;;;;;;5029263;28;20428;-86
2021/10/25 06:02:23;;;;;;;3.90;3.60;;;16.20;50.80;;;;;;5029189;28;20439;-86
2021/10/25 06:04:51;;;;;;;4.90;4.33;;;16.20;50.80;;;;;;5027797;28;20497;-86
2021/10/25 06:07:19;;;;;;;4.23;3.83;;;16.20;50.80;;;;;;5028919;28;20493;-86
2021/10/25 06:09:49;;;;;;;5.00;4.40;;;16.20;50.90;;;;;;5028805;28;20447;-86
2021/10/25 06:12:18;;;;;;;5.40;4.10;;;16.20;50.70;;;;;;5028186;28;20428;-87
2021/10/25 06:14:47;;;;;;;4.43;4.03;;;16.20;50.80;;;;;;5029323;28;20440;-86
2021/10/25 06:17:23;;;;;;;4.27;3.87;;;16.20;50.90;;;;;;5029371;28;20467;-86
2021/10/25 06:19:51;;;;;;;4.53;3.87;;;16.20;50.90;;;;;;5027028;28;20497;-86
2021/10/25 06:22:21;;;;;;;3.67;3.37;;;16.20;51.00;;;;;;5029046;28;20509;-87
2021/10/25 06:24:50;;;;;;;4.83;4.43;;;16.20;51.00;;;;;;5026428;28;20436;-86
2021/10/25 06:27:18;;;;;;;4.73;3.97;;;16.20;51.00;;;;;;5029610;28;20497;-86
2021/10/25 06:29:46;;;;;;;4.40;4.00;;;16.20;50.90;;;;;;5028117;28;20467;-86
2021/10/25 06:32:14;;;;;;;5.53;4.20;;;16.20;51.00;;;;;;5028284;28;20428;-86
2021/10/25 06:34:45;;;;;;;6.03;4.57;;;16.20;51.00;;;;;;5027620;28;20467;-86
2021/10/25 06:37:13;;;;;;;4.97;4.10;;;16.30;51.00;;;;;;5027195;28;20467;-86
2021/10/25 06:39:43;;;;;;;4.30;3.90;;;16.20;50.80;;;;;;5027391;28;20463;-86
2021/10/25 06:42:12;;;;;;;22.40;12.70;;;16.20;50.80;;;;;;5027160;28;20443;-80
2021/10/25 06:44:46;;;;;;;21.53;13.40;;;14.10;49.00;;;;;;5027771;28;20526;-79
2021/10/25 06:47:14;;;;;;;27.37;13.70;;;12.90;52.40;;;;;;5028400;28;20459;-79
2021/10/25 06:49:43;;;;;;;18.57;13.07;;;11.20;57.00;;;;;;5028055;28;20455;-79
2021/10/25 06:52:10;;;;;;;19.37;13.20;;;10.90;58.40;;;;;;5028555;28;20518;-79
2021/10/25 06:54:39;;;;;;;19.57;13.13;;;10.40;60.20;;;;;;5029125;28;20511;-83
2021/10/25 06:57:07;;;;;;;23.63;11.53;;;10.80;64.80;;;;;;5028869;28;20525;-83
2021/10/25 06:59:36;;;;;;;17.70;11.50;;;12.10;63.80;;;;;;5026050;28;20454;-83
2021/10/25 07:02:04;;;;;;;19.63;11.20;;;12.90;60.60;;;;;;5026108;28;20538;-83
2021/10/25 07:04:32;;;;;;;14.63;10.90;;;13.60;58.50;;;;;;5026750;28;20548;-83
2021/10/25 07:07:00;;;;;;;12.83;9.60;;;14.10;57.10;;;;;;5028152;28;20537;-83
2021/10/25 07:09:29;;;;;;;15.73;9.90;;;14.40;55.50;;;;;;5029347;28;20472;-83
2021/10/25 07:11:57;;;;;;;11.90;8.90;;;14.70;54.70;;;;;;5029064;28;20447;-84
2021/10/25 07:14:29;;;;;;;12.67;8.93;;;15.00;54.30;;;;;;5028843;28;20462;-84
2021/10/25 07:17:11;;;;;;;15.60;8.67;;;15.10;53.30;;;;;;5028464;28;20479;-82
2021/10/25 07:19:52;;;;;;;11.27;8.50;;;15.40;53.10;;;;;;5028370;28;20447;-84
2021/10/25 07:22:45;;;;;;;9.87;7.47;;;15.50;52.40;;;;;;5027933;28;20441;-84
2021/10/25 07:59:24;;;;;;;12.17;7.60;;;15.80;51.60;;;;;;5028204;28;20475;-84
2021/10/25 08:01:54;;;;;;;7.20;6.03;;;16.70;50.30;;;;;;5023652;28;20435;-83
2021/10/25 08:04:50;;;;;;;7.13;5.90;;;16.70;50.20;;;;;;5024403;28;20436;-84
2021/10/25 08:07:27;;;;;;;8.40;6.10;;;16.70;50.20;;;;;;5024724;28;20471;-84
2021/10/25 08:09:58;;;;;;;6.97;5.20;;;16.80;50.20;;;;;;5024416;28;20445;-82
2021/10/25 08:12:29;;;;;;;10.33;5.60;;;16.80;50.00;;;;;;5023374;28;20474;-82
2021/10/25 08:15:00;;;;;;;7.97;5.53;;;16.80;50.40;;;;;;4970080;28;1157847;-82
2021/10/25 08:17:40;;;;;;;11.90;5.20;;;16.90;50.70;;;;;;5004831;28;20219;-82
2021/10/25 08:20:09;;;;;;;6.30;5.07;;;17.10;51.20;;;;;;5004635;28;20448;-82
2021/10/25 08:22:41;;;;;;;9.13;5.40;;;17.10;51.30;;;;;;5004265;28;20444;-85
2021/10/25 08:25:09;;;;;;;7.10;5.23;;;17.20;51.50;;;;;;5017289;28;20510;-82
2021/10/25 08:27:37;;;;;;;5.77;5.10;;;17.30;51.40;;;;;;5022849;28;20526;-82
2021/10/25 08:30:06;;;;;;;8.63;5.27;;;17.40;51.50;;;;;;5023343;28;20471;-82
2021/10/25 08:32:59;;;;;;;7.27;5.40;;;17.50;51.30;;;;;;5014393;28;20467;-82
2021/10/25 08:35:49;;;;;;;6.00;4.80;;;17.60;51.30;;;;;;5013421;28;20429;-82
2021/10/25 08:41:07;;;;;;;8.77;5.20;;;18.10;51.00;;;;;;5014903;28;20493;-81
2021/10/25 08:43:36;;;;;;;6.97;5.00;;;18.30;50.80;;;;;;5017300;28;20441;-81
2021/10/25 08:46:07;;;;;;;11.37;5.27;;;18.30;50.60;;;;;;5015587;28;20452;-81
2021/10/25 08:48:35;;;;;;;6.97;5.07;;;18.50;50.70;;;;;;5015950;28;20440;-81
2021/10/25 08:51:04;;;;;;;7.60;5.00;;;18.50;50.60;;;;;;5019858;28;20524;-81
2021/10/25 08:53:33;;;;;;;5.83;4.60;;;18.70;50.80;;;;;;5014422;28;20491;-82
2021/10/25 08:56:01;;;;;;;10.20;5.20;;;18.80;50.60;;;;;;5015219;28;20447;-81
2021/10/25 08:58:33;;;;;;;5.53;4.73;;;19.00;50.70;;;;;;5016593;28;20498;-81
2021/10/25 09:01:01;;;;;;;9.57;5.30;;;19.20;50.80;;;;;;5017278;28;20440;-81
2021/10/25 09:03:30;;;;;;;7.47;4.87;;;19.50;51.00;;;;;;5018361;28;20519;-81
2021/10/25 09:05:58;;;;;;;5.30;4.30;;;19.70;50.70;;;;;;5017864;28;20512;-81
2021/10/25 09:08:27;;;;;;;8.00;4.30;;;20.00;50.70;;;;;;5017015;28;20428;-81
2021/10/25 09:10:57;;;;;;;5.63;4.40;;;20.20;50.50;;;;;;5016203;28;20502;-81
2021/10/25 09:13:26;;;;;;;5.80;4.17;;;20.40;50.10;;;;;;5014096;28;20464;-82
2021/10/25 09:15:55;;;;;;;8.20;4.87;;;20.60;50.10;;;;;;5014043;28;20447;-82
2021/10/25 09:18:25;;;;;;;6.07;4.40;;;20.80;50.00;;;;;;5015960;28;20479;-81
2021/10/25 09:20:54;;;;;;;4.10;3.70;;;21.10;50.00;;;;;;5016598;28;20437;-81
2021/10/25 09:23:23;;;;;;;6.47;4.50;;;21.30;49.30;;;;;;5014450;28;20446;-81
2021/10/25 09:25:56;;;;;;;4.30;3.93;;;21.40;49.10;;;;;;5015646;28;20447;-79
2021/10/25 09:28:27;;;;;;;8.20;4.37;;;21.40;48.80;;;;;;5016200;28;20432;-80
2021/10/25 09:30:57;;;;;;;4.87;3.73;;;21.40;48.80;;;;;;5016210;28;20516;-80
2021/10/25 09:33:33;;;;;;;9.57;4.70;;;21.40;48.80;;;;;;5013832;28;20471;-80
2021/10/25 09:36:02;;;;;;;6.00;4.77;;;21.40;48.80;;;;;;5016209;28;20435;-81
2021/10/25 09:38:34;;;;;;;4.03;3.50;;;21.40;48.70;;;;;;5016237;28;20473;-81
2021/10/25 09:49:32;;;;;;;3.97;3.67;;;21.50;48.60;;;;;;5019256;28;20510;-79
2021/10/25 09:52:01;;;;;;;5.80;4.03;;;21.60;48.70;;;;;;5031775;28;20442;-79
2021/10/25 09:54:29;;;;;;;5.40;4.30;;;21.70;48.60;;;;;;5029275;28;20454;-78
2021/10/25 09:57:05;;;;;;;5.00;3.67;;;21.70;48.60;;;;;;5018638;28;20522;-78
2021/10/25 09:59:47;;;;;;;4.07;3.83;;;21.80;48.30;;;;;;5023408;28;20509;-77
2021/10/25 10:02:15;;;;;;;5.13;3.67;;;21.60;48.30;;;;;;5028112;28;20450;-77
2021/10/25 10:04:46;;;;;;;6.40;4.40;;;21.60;48.40;;;;;;5040501;28;20443;-77
2021/10/25 10:07:16;;;;;;;4.30;3.90;;;21.50;48.40;;;;;;5022488;28;20451;-78
2021/10/25 10:09:45;;;;;;;4.33;3.60;;;21.40;48.50;;;;;;5021365;28;20543;-77
2021/10/25 10:12:17;;;;;;;7.53;4.20;;;21.30;48.60;;;;;;5030738;28;20516;-77
2021/10/25 10:14:48;;;;;;;7.93;4.03;;;21.30;48.70;;;;;;5020084;28;20457;-78
2021/10/25 10:17:18;;;;;;;7.30;4.57;;;21.20;48.60;;;;;;5019772;28;20550;-78
2021/10/25 10:19:47;;;;;;;5.83;4.17;;;21.20;48.70;;;;;;5024115;28;20452;-77
2021/10/25 10:22:15;;;;;;;5.03;3.73;;;21.10;48.70;;;;;;5025959;28;20455;-79
2021/10/25 10:24:43;;;;;;;4.40;4.00;;;21.10;48.80;;;;;;5024068;28;20448;-78
2021/10/25 10:27:13;;;;;;;8.07;3.80;;;21.00;48.80;;;;;;5018639;28;20417;-78
2021/10/25 10:29:42;;;;;;;5.30;4.30;;;20.90;48.80;;;;;;5030139;28;20446;-78
2021/10/25 10:32:14;;;;;;;4.87;3.77;;;20.80;48.90;;;;;;5022012;28;20485;-78
2021/10/25 10:34:43;;;;;;;4.17;3.77;;;20.80;49.10;;;;;;5021752;28;20455;-78
2021/10/25 10:37:20;;;;;;;5.20;4.23;;;20.70;49.10;;;;;;5019589;28;20479;-78
2021/10/25 10:40:01;;;;;;;7.70;4.10;;;20.70;49.20;;;;;;5018347;28;20454;-79
2021/10/25 10:42:29;;;;;;;6.63;3.70;;;20.70;49.20;;;;;;5015681;28;20430;-79
2021/10/25 10:45:00;;;;;;;4.60;3.73;;;20.70;49.20;;;;;;5022515;28;20534;-78
2021/10/25 10:47:36;;;;;;;5.07;4.13;;;20.60;49.20;;;;;;5020618;28;20468;-78
2021/10/25 10:50:05;;;;;;;5.73;4.10;;;20.60;49.80;;;;;;5021156;28;20451;-78
2021/10/25 10:52:35;;;;;;;6.80;4.00;;;20.50;49.30;;;;;;5018990;28;20443;-78
2021/10/25 10:55:06;;;;;;;5.97;4.00;;;20.50;49.30;;;;;;5025146;28;20452;-77
2021/10/25 11:00:40;;;;;;;4.77;4.10;;;20.60;49.40;;;;;;5018844;28;20502;-77
2021/10/25 11:03:19;;;;;;;5.47;4.03;;;20.70;49.30;;;;;;5021531;28;20449;-77
2021/10/25 11:05:50;;;;;;;4.90;3.83;;;20.80;49.30;;;;;;5018774;28;20455;-77
2021/10/25 11:08:21;;;;;;;4.40;3.53;;;21.20;49.30;;;;;;5017605;28;20539;-77
2021/10/25 11:11:03;;;;;;;5.30;3.70;;;21.30;48.60;;;;;;5021398;28;20553;-78
2021/10/25 11:13:33;;;;;;;6.90;4.30;;;21.50;48.20;;;;;;5020533;28;20486;-78
2021/10/25 11:16:07;;;;;;;9.17;4.13;;;21.40;48.00;;;;;;5016571;28;20483;-79
2021/10/25 11:18:37;;;;;;;4.73;4.23;;;21.30;47.90;;;;;;5013186;28;20479;-78
2021/10/25 11:21:08;;;;;;;4.93;3.70;;;21.20;48.10;;;;;;5028714;28;20467;-78
2021/10/25 11:23:43;;;;;;;4.47;3.80;;;21.10;48.20;;;;;;5022306;28;20470;-78
2021/10/25 11:26:12;;;;;;;4.63;3.50;;;21.00;48.40;;;;;;5023367;28;20462;-78
2021/10/25 11:28:59;;;;;;;5.47;3.73;;;21.00;48.50;;;;;;5023199;28;20452;-78
2021/10/25 11:31:29;;;;;;;6.37;3.50;;;20.90;48.60;;;;;;5025763;28;20478;-78
2021/10/25 11:33:58;;;;;;;6.60;3.50;;;20.90;48.70;;;;;;5027385;28;20451;-78
2021/10/25 11:36:30;;;;;;;3.90;3.60;;;20.90;48.70;;;;;;5023510;28;20503;-78
2021/10/25 11:38:58;;;;;;;6.40;3.90;;;20.90;48.70;;;;;;5019350;28;20495;-78
2021/10/25 11:41:27;;;;;;;4.77;3.67;;;20.80;48.70;;;;;;5019280;28;20503;-78
2021/10/25 11:43:55;;;;;;;6.23;3.80;;;20.80;48.90;;;;;;5020850;28;20472;-79
2021/10/25 11:46:23;;;;;;;5.23;3.60;;;20.70;48.80;;;;;;5021382;28;20479;-78
2021/10/25 11:48:55;;;;;;;4.27;3.50;;;20.70;48.80;;;;;;5017549;28;20475;-79
2021/10/25 11:51:24;;;;;;;3.60;3.20;;;20.70;48.90;;;;;;5025211;28;20505;-79
2021/10/25 11:53:56;;;;;;;9.50;3.80;;;20.70;48.90;;;;;;5028437;28;20451;-79
2021/10/25 11:56:24;;;;;;;4.07;3.70;;;20.70;48.90;;;;;;5026473;28;20446;-79
2021/10/25 11:58:53;;;;;;;7.00;4.20;;;20.70;49.10;;;;;;5021449;28;20515;-79
2021/10/25 12:01:21;;;;;;;3.70;3.40;;;20.70;49.10;;;;;;5024202;28;20505;-78
2021/10/25 12:03:49;;;;;;;6.10;4.17;;;20.60;49.00;;;;;;5025627;28;20452;-78
2021/10/25 12:06:19;;;;;;;3.83;3.23;;;20.60;49.00;;;;;;5025485;28;20448;-78
2021/10/25 12:08:56;;;;;;;4.93;3.90;;;20.60;49.10;;;;;;5020185;28;20479;-79
2021/10/25 12:14:15;;;;;;;7.17;3.70;;;20.60;49.30;;;;;;5029420;28;20466;-79
2021/10/25 12:16:46;;;;;;;4.20;3.80;;;20.60;49.30;;;;;;5026202;28;20448;-79
2021/10/25 12:19:14;;;;;;;5.40;3.80;;;20.50;49.20;;;;;;5029482;28;20494;-78
2021/10/25 12:21:44;;;;;;;5.70;3.87;;;20.60;49.30;;;;;;5032597;28;20475;-79
2021/10/25 12:24:12;;;;;;;5.10;4.00;;;20.60;49.20;;;;;;5023446;28;20450;-78
2021/10/25 12:26:40;;;;;;;5.20;3.83;;;20.60;49.30;;;;;;5024340;28;20451;-78
2021/10/25 12:29:16;;;;;;;4.47;3.60;;;20.60;49.30;;;;;;5024769;28;20456;-78
2021/10/25 12:31:44;;;;;;;3.83;3.47;;;20.60;49.20;;;;;;5028465;28;20459;-78
2021/10/25 12:34:14;;;;;;;3.63;3.23;;;20.60;49.20;;;;;;5030535;28;20454;-79
2021/10/25 12:36:45;;;;;;;4.33;3.30;;;20.60;49.30;;;;;;5024295;28;20512;-78
2021/10/25 12:39:14;;;;;;;5.07;3.83;;;20.70;49.30;;;;;;5028523;28;20474;-78
2021/10/25 12:41:50;;;;;;;6.60;4.03;;;20.70;49.30;;;;;;5024875;28;20510;-78
2021/10/25 12:44:26;;;;;;;6.30;3.93;;;20.70;49.20;;;;;;5024239;28;20463;-78
2021/10/25 12:47:06;;;;;;;4.53;3.53;;;20.70;49.30;;;;;;5026461;28;20472;-78
2021/10/25 12:49:34;;;;;;;4.93;3.57;;;20.70;49.30;;;;;;5022522;28;20451;-79
2021/10/25 12:52:08;;;;;;;3.60;3.30;;;20.80;49.40;;;;;;5034531;28;20416;-79
2021/10/25 12:54:36;;;;;;;4.47;3.40;;;20.70;49.30;;;;;;5023410;28;20456;-77
2021/10/25 12:57:14;;;;;;;5.00;3.83;;;20.70;49.30;;;;;;5022189;28;20459;-77
2021/10/25 12:59:43;;;;;;;9.17;3.90;;;20.70;49.40;;;;;;5022731;28;20541;-78
2021/10/25 13:02:11;;;;;;;5.23;3.93;;;20.70;49.50;;;;;;5025420;28;20462;-78
2021/10/25 13:04:39;;;;;;;3.80;3.40;;;20.70;50.10;;;;;;5027418;28;20437;-78
2021/10/25 13:07:14;;;;;;;3.80;3.50;;;20.70;49.60;;;;;;5028156;28;20456;-78
2021/10/25 13:09:49;;;;;;;4.07;3.60;;;20.70;49.60;;;;;;5023668;28;20478;-79
2021/10/25 13:12:17;;;;;;;4.23;3.50;;;20.70;49.60;;;;;;5028595;28;20450;-79
2021/10/25 13:14:45;;;;;;;5.00;4.00;;;20.70;49.80;;;;;;5031051;28;20545;-80
2021/10/25 13:17:33;;;;;;;4.70;3.60;;;20.70;49.70;;;;;;5018581;28;20448;-79
2021/10/25 13:20:01;;;;;;;4.73;3.50;;;20.60;49.80;;;;;;5034602;28;20565;-80
2021/10/25 13:22:32;;;;;;;5.33;3.80;;;20.60;49.80;;;;;;5024661;28;20467;-79
2021/10/25 13:25:00;;;;;;;4.07;3.10;;;20.60;49.80;;;;;;5023616;28;20420;-80
2021/10/25 13:27:28;;;;;;;3.70;3.40;;;20.70;49.90;;;;;;5028946;28;20485;-79
2021/10/25 13:29:56;;;;;;;4.00;3.40;;;20.70;50.00;;;;;;5020661;28;20451;-79
2021/10/25 13:32:24;;;;;;;5.23;3.57;;;20.60;49.90;;;;;;5024862;28;20473;-79
2021/10/25 13:34:52;;;;;;;4.10;3.70;;;20.60;50.00;;;;;;5028770;28;20510;-79
2021/10/25 13:37:20;;;;;;;3.80;3.50;;;20.60;49.90;;;;;;5032433;28;20443;-79
2021/10/25 13:39:50;;;;;;;3.73;3.40;;;20.70;50.00;;;;;;5029738;28;20471;-79
2021/10/25 13:42:18;;;;;;;5.27;4.00;;;20.70;50.00;;;;;;5026002;28;20446;-79
2021/10/25 13:44:46;;;;;;;4.23;3.83;;;20.70;50.00;;;;;;5025749;28;20471;-80
2021/10/25 13:47:14;;;;;;;4.70;3.47;;;20.70;50.10;;;;;;5028185;28;20475;-79
2021/10/25 13:49:42;;;;;;;4.50;3.47;;;20.70;50.10;;;;;;5030403;28;20518;-79
2021/10/25 13:52:10;;;;;;;4.30;3.40;;;20.70;50.10;;;;;;5029529;28;20465;-79
2021/10/25 13:54:38;;;;;;;4.07;3.57;;;20.70;50.00;;;;;;5027024;28;20467;-79
2021/10/25 13:57:08;;;;;;;6.20;3.60;;;20.80;50.10;;;;;;5034555;28;20539;-78
2021/10/25 13:59:37;;;;;;;4.87;3.87;;;20.70;49.90;;;;;;5023688;28;20464;-79
2021/10/25 14:02:08;;;;;;;5.33;4.17;;;20.70;50.10;;;;;;5034893;28;20512;-79
2021/10/25 14:04:40;;;;;;;5.13;3.80;;;20.80;50.10;;;;;;5014630;28;20505;-79
2021/10/25 14:07:14;;;;;;;8.77;4.00;;;20.70;49.90;;;;;;5021299;28;20434;-79
2021/10/25 14:09:43;;;;;;;4.00;3.60;;;20.70;50.00;;;;;;5030239;28;20443;-79
2021/10/25 14:12:18;;;;;;;4.90;4.00;;;20.70;50.10;;;;;;5028500;28;20489;-79
2021/10/25 14:15:17;;;;;;;3.43;3.17;;;20.70;50.00;;;;;;5031225;28;20535;-79
2021/10/25 14:17:45;;;;;;;4.23;3.90;;;20.70;50.10;;;;;;5028537;28;20439;-79
2021/10/25 14:20:14;;;;;;;3.20;3.00;;;20.70;50.10;;;;;;5031668;28;20482;-79
2021/10/25 14:22:43;;;;;;;4.03;3.47;;;20.70;50.10;;;;;;5033086;28;20498;-78